Aérodrome :
LOGIN :

S'inscrire | Disclaimer

   EN    FR    IT 

 










Légende :    VFR   VFR Marginal   IFR   IFR Intensif   IFR Très Intensif
Visi : 
Plafond : 
>= 8 km
>= 3000ft
5 à 8 km
1000 à 3000 ft
1500m à 5 km
500 à 1000 ft
800 à 1500m
200 à 500 ft
< 800m
< 200 ft
Symboles :   Orages  Brouillard  Fortes neiges  Fortes précipitations  Vent > 20 kt
SIGMETs :   Divers  Orages  Givrage  Turbulence  Onde Orograph.  Cendres Volcan.







- Altitude de l'aérodrome : 144 ft
- Code IATA : PGF
- Voir les cartes d'approche


LFMP - Perpignan

DERNIER METAR :
  • 122200Z AUTO 12010KT 9000 FEW007 BKN041 18/16 Q1021

METARs EXPIRÉS :
  • 122130Z AUTO 12010KT 9000 FEW043 18/16 Q1021 NOSIG
  • 122100Z AUTO 13010KT 9999 SCT042 18/16 Q1021 NOSIG
  • 122030Z AUTO 12010KT 9999 BKN042 18/16 Q1021 NOSIG
  • 122000Z AUTO 11009KT 9999 FEW011 BKN041 18/16 Q1021 NOSIG
  • 121930Z AUTO 11013KT 9999 BKN042 BKN048 18/16 Q1020 NOSIG

TAF AMD TAF LFMP
Valide du 12 à 19h jusqu'au 13 à 15h UTC


121908Z 1219/1315 13010KT 9999 FEW010 BKN045
BECMG 1300/1302 28006KT
TEMPO 1302/1315 BKN010
ATIS : +33 4 68 63 75 12
Pas de NOTAMs connus pour ce terrain.



MET'MAP, la Météo Aéronautique d'un coup d'oeil ! - Copyright ORBIFLY Décembre 2007 - Disclaimer

ORBIFLY MET'MAP TEAM :

Programmation & Développement : Alexandra Zaïnal
Conception & Développement : Baudouin d'Aumeries
Co-Programmation & Développement : Marc-Olivier Méhu
Soutien technique & logistique : Manuel Goepfert

Contact : metmap@orbifly.com




SOURCES & CREDITS :

   NOAA